Wisecarver (157, 524) Station Data

Red Flag Warning: No
Fire Weather Zone: 250
SDGE Region: Mountain Empire
Lat/Lon: 32.732/-116.762

Observations

Time Wind Speed/Gust Temp(F) RH Fuel Moist Fuel Temp(F) Dewpt(F) Tmax(F) Tmin(F) Accum Precip 10-min Precip SL Press(mb)
3/29 8:00am 169 3 G 4 66° 14% - - 15° 66.2° 59.8° - - -
3/29 7:50am 125 3 G 6 65° 14% - - 14° 65.8° 59.8° - - -
3/29 7:40am 110 5 G 9 64° 14% - - 13° 64.4° 59.8° - - -
3/29 7:30am 143 3 G 10 64° 13% - - 11° 64.4° 59.8° - - -
3/29 7:20am 175 4 G 7 62° 13% - - 11° 64.4° 59.8° - - -
3/29 7:10am 182 4 G 6 62° 13% - - 11° 64.4° 59.8° - - -
3/29 7:00am 156 2 G 4 63° 12% - - 10° 64.4° 59.8° - - -
3/29 6:50am 138 1 G 3 63° 12% - - 10° 64.4° 59.8° - - -
3/29 6:40am 147 1 G 3 63° 12% - - 10° 64.4° 59.8° - - -
3/29 6:30am 148 1 G 3 62° 13% - - 10° 64.4° 59.8° - - -
3/29 6:20am 144 3 G 5 63° 12% - - 10° 64.4° 59.8° - - -
3/29 6:10am 145 2 G 4 63° 12% - - 11° 64.4° 59.8° - - -
3/29 6:00am 160 3 G 4 63° 13% - - 11° 64.4° 59.8° - - -
3/29 5:50am 179 2 G 4 63° 13% - - 11° 64.4° 59.8° - - -
3/29 5:40am 182 2 G 3 63° 13% - - 11° 64.4° 59.8° - - -
3/29 5:30am 164 3 G 4 63° 13% - - 11° 64.4° 59.8° - - -
3/29 5:20am 170 2 G 4 63° 13% - - 11° 64.4° 59.8° - - -
3/29 5:10am 156 2 G 3 63° 12% - - 11° 64.4° 59.8° - - -
3/29 5:00am 132 2 G 3 63° 12% - - 64.4° 59.8° - - -
3/29 4:50am 148 3 G 4 62° 13% - - 10° 64.4° 59.8° - - -
3/29 4:40am 109 2 G 3 62° 13% - - 11° 64.4° 59.8° - - -
3/29 4:30am 86 3 G 4 61° 14% - - 12° 64.4° 59.8° - - -
3/29 4:20am 106 3 G 5 61° 14% - - 12° 64.4° 59.8° - - -
3/29 4:10am 100 2 G 3 61° 13% - - 10° 64.4° 59.8° - - -
3/29 4:00am 96 2 G 3 61° 13% - - 10° 64.4° 59.8° - - -
3/29 3:50am 72 1 G 3 60° 13% - - 10° 64.4° 59.8° - - -
3/29 3:40am 55 1 G 4 60° 13% - - 10° 64.4° 59.8° - - -
3/29 3:30am 51 1 G 3 60° 14% - - 10° 64.4° 59.8° - - -
3/29 3:20am 359 3 G 5 61° 13% - - 10° 64.4° 59.9° - - -
3/29 3:10am 78 5 G 8 61° 13% - - 10° 64.4° 59.9° - - -
3/29 3:00am 79 5 G 9 62° 13% - - 10° 64.4° 59.9° - - -
3/29 2:50am 74 6 G 12 62° 13% - - 10° 64.4° 59.9° - - -
3/29 2:40am 85 5 G 11 61° 13% - - 10° 64.4° 59.9° - - -
3/29 2:30am 113 5 G 8 61° 13% - - 10° 64.4° 59.9° - - -
3/29 2:20am 117 4 G 6 61° 13% - - 64.4° 59.9° - - -
3/29 2:10am 111 3 G 6 60° 13% - - 10° 64.4° 59.9° - - -
3/29 2:00am 138 2 G 4 62° 12% - - 64.4° 59.9° - - -
3/29 1:50am 100 1 G 2 62° 12% - - 64.4° 59.9° - - -
3/29 1:40am 162 2 G 4 61° 13% - - 10° 64.4° 59.9° - - -
3/29 1:30am 160 2 G 4 62° 12% - - 64.4° 60.8° - - -
3/29 1:20am 129 3 G 4 62° 12% - - 64.4° 60.8° - - -
3/29 1:10am 142 3 G 4 61° 13% - - 64.4° 60.8° - - -
3/29 1:00am 130 2 G 3 61° 13% - - 10° 64.4° 60.8° - - -
3/29 12:50am 114 3 G 7 62° 13% - - 10° 64.4° 61.4° - - -
3/29 12:40am 99 4 G 8 63° 12% - - 10° 64.4° 61.6° - - -
3/29 12:30am 114 5 G 8 63° 12% - - 64.4° 61.6° - - -
3/29 12:20am 106 5 G 8 62° 13% - - 11° 63.3° 61.6° - - -
3/29 12:10am 111 5 G 10 63° 13% - - 11° 63.1° 61.9° - - -
3/29 12:00am 112 3 G 5 62° 19% - - 19° 69° 46.2° - - -
3/28 11:50pm 123 3 G 5 61° 24% - - 24° 69° 46.2° - - -
3/28 11:40pm 124 3 G 4 61° 27% - - 27° 69° 46.2° - - -
3/28 11:30pm 130 3 G 4 60° 33% - - 31° 69° 46.2° - - -
3/28 11:20pm 151 3 G 4 58° 44% - - 36° 69° 46.2° - - -
3/28 11:10pm 149 2 G 4 57° 48% - - 38° 69° 46.2° - - -
3/28 11:00pm 242 2 G 3 57° 50% - - 38° 69° 46.2° - - -
3/28 10:50pm 351 1 G 3 56° 51% - - 39° 69° 46.2° - - -
3/28 10:40pm 124 1 G 2 56° 52% - - 39° 69° 46.2° - - -
3/28 10:30pm 79 2 G 2 56° 52% - - 39° 69° 46.2° - - -
3/28 10:20pm 101 1 G 1 57° 52% - - 39° 69° 46.2° - - -
3/28 10:10pm 129 1 G 2 56° 52% - - 39° 69° 46.2° - - -
3/28 10:00pm 107 1 G 2 56° 53% - - 39° 69° 46.2° - - -
3/28 9:50pm 129 1 G 2 55° 54% - - 39° 69° 46.2° - - -
3/28 9:40pm 103 2 G 3 55° 53% - - 38° 69° 46.2° - - -
3/28 9:30pm 127 3 G 4 53° 53% - - 37° 69° 46.2° - - -
3/28 9:20pm 98 3 G 4 53° 54% - - 37° 69° 46.2° - - -
3/28 9:10pm 103 2 G 4 52° 57% - - 38° 69° 46.2° - - -
3/28 9:00pm 97 2 G 4 53° 57% - - 38° 69° 46.2° - - -
3/28 8:50pm 78 3 G 4 54° 56% - - 38° 69° 46.2° - - -
3/28 8:40pm 103 2 G 3 53° 57% - - 38° 69° 46.2° - - -
3/28 8:30pm 88 2 G 3 54° 57% - - 39° 69° 46.2° - - -
3/28 8:20pm 23 2 G 4 54° 58% - - 40° 69° 46.2° - - -
3/28 8:10pm 136 1 G 3 54° 58% - - 40° 69° 46.2° - - -
3/28 8:00pm 76 2 G 3 54° 58% - - 40° 69° 46.2° - - -
3/28 7:50pm 319 2 G 4 54° 57% - - 40° 69° 46.2° - - -
3/28 7:40pm 198 1 G 2 54° 58% - - 40° 69° 46.2° - - -
3/28 7:30pm 341 2 G 3 55° 56% - - 40° 69° 46.2° - - -
3/28 7:20pm 270 1 G 2 56° 56% - - 40° 69° 46.2° - - -
3/28 7:10pm 268 2 G 4 56° 55% - - 40° 69° 46.2° - - -
3/28 7:00pm 266 3 G 4 57° 53% - - 40° 69° 46.2° - - -
3/28 6:50pm 267 3 G 5 58° 52% - - 40° 69° 46.2° - - -
3/28 6:40pm 296 4 G 6 59° 49% - - 40° 69° 46.2° - - -
3/28 6:30pm 262 3 G 6 60° 48% - - 40° 69° 46.2° - - -
3/28 6:20pm 291 4 G 9 61° 46% - - 40° 69° 46.2° - - -
3/28 6:10pm 283 5 G 8 61° 46% - - 40° 69° 46.2° - - -
3/28 6:00pm 282 5 G 9 62° 45% - - 40° 69° 46.2° - - -
3/28 5:50pm 276 5 G 10 63° 44% - - 40° 69° 46.2° - - -
3/28 5:40pm 269 4 G 9 63° 43% - - 40° 69° 46.2° - - -
3/28 5:30pm 284 6 G 10 63° 42% - - 40° 69° 46.2° - - -
3/28 5:20pm 270 5 G 12 64° 42% - - 40° 69° 46.2° - - -
3/28 5:10pm 280 6 G 12 64° 42% - - 40° 69° 46.2° - - -
3/28 5:00pm 283 6 G 11 65° 41% - - 40° 69° 46.2° - - -
3/28 4:50pm 277 5 G 10 65° 40% - - 40° 69° 46.2° - - -
3/28 4:40pm 288 6 G 13 65° 40% - - 40° 69° 46.2° - - -
3/28 4:30pm 285 4 G 9 66° 40% - - 41° 69° 46.2° - - -
3/28 4:20pm 274 7 G 11 66° 40% - - 41° 69° 46.2° - - -
3/28 4:10pm 274 5 G 11 66° 41% - - 42° 69° 46.2° - - -
3/28 4:00pm 299 6 G 12 66° 38% - - 40° 69° 46.2° - - -
3/28 3:50pm 291 5 G 11 67° 37% - - 40° 69° 46.2° - - -
3/28 3:40pm 295 4 G 10 66° 37% - - 39° 69° 46.2° - - -
3/28 3:30pm 302 6 G 14 66° 36% - - 39° 69° 46.2° - - -
3/28 3:20pm 268 4 G 10 67° 33% - - 37° 69° 46.2° - - -
3/28 3:10pm 289 6 G 11 67° 33% - - 37° 69° 46.2° - - -
3/28 3:00pm 295 6 G 12 67° 33% - - 37° 69° 46.2° - - -
3/28 2:50pm 255 5 G 10 68° 31% - - 36° 69° 46.2° - - -
3/28 2:40pm 232 4 G 12 67° 33% - - 37° 67.8° 46.2° - - -
3/28 2:30pm 246 5 G 10 67° 32% - - 36° 67.7° 46.2° - - -
3/28 2:20pm 258 5 G 10 67° 28% - - 33° 67.7° 46.2° - - -
3/28 2:10pm 291 5 G 11 66° 27% - - 31° 66.8° 46.2° - - -
3/28 2:00pm 295 7 G 12 65° 28% - - 31° 66.7° 46.2° - - -
3/28 1:50pm 291 8 G 15 65° 28% - - 32° 66.7° 46.2° - - -
3/28 1:40pm 288 5 G 12 66° 30% - - 33° 66.7° 46.2° - - -
3/28 1:30pm 274 5 G 14 66° 30% - - 33° 66.7° 46.2° - - -
3/28 1:20pm 274 5 G 9 66° 30% - - 33° 66.5° 46.2° - - -
3/28 1:10pm 303 6 G 13 65° 27% - - 31° 66.3° 46.2° - - -
3/28 1:00pm 284 5 G 12 65° 28% - - 31° 66.3° 46.2° - - -
3/28 12:50pm 283 6 G 11 65° 27% - - 31° 66.3° 46.2° - - -
3/28 12:40pm 273 5 G 11 65° 26% - - 29° 66° 46.2° - - -
3/28 12:30pm 273 5 G 10 65° 26% - - 30° 66° 46.2° - - -
3/28 12:20pm 269 5 G 11 64° 27% - - 30° 65.3° 46.2° - - -
3/28 12:10pm 248 5 G 12 64° 28% - - 30° 65° 46.2° - - -
3/28 12:00pm 255 5 G 10 63° 30% - - 31° 64° 46.2° - - -
3/28 11:50am 223 7 G 14 62° 33% - - 32° 63.2° 46.2° - - -
3/28 11:40am 224 5 G 11 62° 37% - - 35° 63.2° 46.2° - - -
3/28 11:30am 232 5 G 10 61° 41% - - 38° 62.3° 46.2° - - -
3/28 11:20am 217 6 G 11 61° 43% - - 38° 62.3° 46.2° - - -
3/28 11:10am 222 6 G 10 61° 41% - - 37° 62.3° 46.2° - - -
3/28 11:00am 235 4 G 10 62° 42% - - 38° 62.3° 46.2° - - -
3/28 10:50am 295 5 G 9 61° 33% - - 32° 61.9° 46.2° - - -
3/28 10:40am 304 5 G 8 61° 28% - - 27° 61.9° 46.2° - - -
3/28 10:30am 297 4 G 8 61° 28% - - 28° 61.9° 46.2° - - -
3/28 10:20am 293 4 G 8 61° 31% - - 29° 61.8° 46.2° - - -
3/28 10:10am 293 4 G 7 61° 32% - - 31° 61.8° 46.2° - - -
3/28 10:00am 283 3 G 5 60° 31% - - 30° 61.4° 46.2° - - -
3/28 9:50am 321 2 G 4 61° 34% - - 32° 61.4° 46.2° - - -
3/28 9:40am 309 2 G 4 60° 33% - - 31° 60.4° 46.2° - - -
3/28 9:30am 293 2 G 4 60° 31% - - 29° 60.4° 46.2° - - -
3/28 9:20am 292 3 G 6 58° 32% - - 28° 58.7° 46.2° - - -
3/28 9:10am 267 3 G 4 57° 37% - - 31° 57.7° 46.2° - - -
3/28 9:00am 263 2 G 4 57° 40% - - 33° 57.7° 46.2° - - -
3/28 8:50am 28 2 G 4 56° 39% - - 31° 57.7° 46.2° - - -
3/28 8:40am 39 2 G 5 55° 42% - - 32° 57.7° 46.2° - - -
3/28 8:30am 52 3 G 5 55° 41% - - 32° 57.7° 46.2° - - -
3/28 8:20am 7 2 G 5 56° 41% - - 33° 57.7° 46.2° - - -
3/28 8:10am 134 1 G 3 55° 44% - - 33° 56.5° 46.2° - - -
3/28 8:00am 211 1 G 2 53° 48% - - 34° 54.3° 46.2° - - -
3/28 7:50am 261 1 G 3 53° 47% - - 34° 53.7° 46.2° - - -
3/28 7:40am 158 1 G 2 52° 49% - - 34° 53.7° 46.2° - - -
3/28 7:30am 92 3 G 4 51° 51% - - 33° 52.5° 46.2° - - -
3/28 7:20am 70 2 G 3 52° 47% - - 32° 52.5° 46.2° - - -
3/28 7:10am 41 1 G 2 51° 49% - - 33° 52.3° 46.2° - - -
3/28 7:00am 33 1 G 3 51° 49% - - 32° 51.3° 46.2° - - -
3/28 6:50am 306 2 G 2 51° 48% - - 32° 51.3° 46.2° - - -
3/28 6:40am 255 1 G 2 50° 50% - - 32° 51.3° 46.2° - - -
3/28 6:30am 243 2 G 4 50° 49% - - 32° 51.3° 46.2° - - -
3/28 6:20am 164 0 G 2 50° 49% - - 32° 51.3° 46.2° - - -
3/28 6:10am 113 1 G 2 51° 47% - - 32° 51.3° 46.2° - - -
3/28 6:00am 76 2 G 2 51° 47% - - 32° 51.2° 46.2° - - -